Ogden Hinckley Airport
KOGD : now visible

Airfield :











YOU CAN JOIN US ON...

 
LOGIN :

Register | Disclaimer

   EN    FR    IT 

 









Legend :    VFR   Marginal VFR   IFR   Intensive IFR   Very Intensive IFR
Visi :
Ceiling :
>= 8 km
>= 3000ft
5 to 8 km
1000 to 3000 ft
1500m to 5 km
500 to 1000 ft
800 to 1500m
200 to 500 ft
< 800m
< 200 ft
Symbols :   Thunderstorms  Fog  Heavy snow  Heavy precipitations  Wind > 20 kt






- Airport Elevation : 4473 ft


KOGD - Ogden Hinckley

CURRENT METAR :
  • 271753Z COR 18009KT 10SM SCT025 BKN120 04/M01 A3012 RMK AO2 SLP202 T00441011 10044 20000 58009

EXPIRED METARs :
  • 271653Z 18008KT 10SM FEW020 BKN120 03/M01 A3013 RMK AO2 SLP208 T00331006
  • 271553Z 17003KT 4SM BR OVC018 01/M01 A3015 RMK AO2 SLP218 T00111006

TAF KOGD
Valid from the 27 at 18:00 until the 28 at 18:00 UTC


271726Z 2718/2818 18007KT P6SM FEW020 BKN110
FM280300 17008KT P6SM SCT080 OVC100
FM281200 19010KT P6SM VCSH OVC050
KZLC FIR / North America



MET'MAP, your aeronautical weather chart ! - Copyright ORBIFLY December 2007 - Disclaimer

ORBIFLY MET'MAP TEAM :

Programming & Development : Alexandra Zaïnal
Original concept : Baudouin d'Aumeries
Technical & hardware support : Manuel Goepfert
Assistance : Marc-Olivier Méhu




SOURCES & CREDITS :

   NOAA       Earth
Advisory